createdAt,value
2018-08-30T00:01:39.655Z,18.96
2018-08-30T00:04:08.630Z,19.01
2018-08-30T00:06:37.681Z,19.05
2018-08-30T00:09:07.350Z,19.07
2018-08-30T00:11:36.641Z,19.06
2018-08-30T00:14:06.150Z,19.01
2018-08-30T00:16:35.130Z,18.95
2018-08-30T00:19:04.140Z,18.88
2018-08-30T00:21:33.464Z,18.87
2018-08-30T00:24:02.422Z,18.81
2018-08-30T00:26:31.430Z,18.79
2018-08-30T00:29:00.957Z,18.75
2018-08-30T00:31:30.033Z,18.76
2018-08-30T00:33:58.811Z,18.80
2018-08-30T00:36:27.838Z,18.72
2018-08-30T00:38:57.107Z,18.81
2018-08-30T00:41:26.318Z,18.80
2018-08-30T00:43:55.432Z,18.70
2018-08-30T00:46:24.309Z,18.63
2018-08-30T00:48:53.288Z,18.61
2018-08-30T00:51:22.924Z,18.60
2018-08-30T00:53:51.903Z,18.58
2018-08-30T00:56:20.899Z,18.62
2018-08-30T00:58:50.022Z,18.48
2018-08-30T01:01:19.095Z,18.51
2018-08-30T01:03:48.178Z,18.42
2018-08-30T01:06:17.810Z,18.33
2018-08-30T01:08:46.904Z,18.31
2018-08-30T01:11:16.071Z,18.40
2018-08-30T01:13:45.187Z,18.37
2018-08-30T01:16:14.250Z,18.33
2018-08-30T01:18:43.301Z,18.28
2018-08-30T01:21:13.011Z,18.24
2018-08-30T01:23:42.134Z,18.19
2018-08-30T01:26:11.032Z,18.15
2018-08-30T01:28:40.379Z,18.11
2018-08-30T01:31:09.518Z,18.04
2018-08-30T01:33:38.540Z,18.00
2018-08-30T01:36:07.786Z,17.97
2018-08-30T01:38:36.852Z,17.95
2018-08-30T01:41:06.164Z,17.96
2018-08-30T01:43:35.478Z,17.94
2018-08-30T01:46:04.371Z,17.97
2018-08-30T01:48:33.370Z,17.96
2018-08-30T01:51:02.933Z,17.94
2018-08-30T01:53:31.990Z,17.93
2018-08-30T01:56:01.092Z,17.88
2018-08-30T01:58:30.310Z,17.87
2018-08-30T02:00:59.273Z,17.82
2018-08-30T02:03:28.285Z,17.90
2018-08-30T02:05:57.398Z,17.90
2018-08-30T02:08:26.342Z,17.92
2018-08-30T02:10:55.367Z,17.90
2018-08-30T02:13:25.205Z,17.96
2018-08-30T02:15:54.343Z,17.91
2018-08-30T02:18:23.226Z,17.80
2018-08-30T02:20:52.738Z,17.75
2018-08-30T02:23:21.834Z,17.75
2018-08-30T02:25:50.739Z,17.72
2018-08-30T02:28:20.166Z,17.67
2018-08-30T02:30:49.156Z,17.63
2018-08-30T02:33:18.237Z,17.60
2018-08-30T02:35:47.660Z,17.61
2018-08-30T02:38:16.682Z,17.56
2018-08-30T02:40:45.700Z,17.52
2018-08-30T02:43:14.938Z,17.48
2018-08-30T02:45:44.008Z,17.45
2018-08-30T02:48:13.129Z,17.44
2018-08-30T02:50:42.136Z,17.45
2018-08-30T02:53:11.401Z,17.40
2018-08-30T02:55:40.434Z,17.38
2018-08-30T02:58:09.803Z,17.37
2018-08-30T03:00:38.442Z,17.33
2018-08-30T03:03:07.701Z,17.31
2018-08-30T03:05:36.968Z,17.31
2018-08-30T03:08:06.064Z,17.36
2018-08-30T03:10:35.162Z,17.31
2018-08-30T03:13:04.594Z,17.22
2018-08-30T03:15:33.637Z,17.20
2018-08-30T03:18:03.551Z,17.20
2018-08-30T03:20:32.660Z,17.22
2018-08-30T03:23:01.518Z,17.11
2018-08-30T03:25:30.395Z,17.16
2018-08-30T03:27:59.668Z,17.10
2018-08-30T03:30:28.920Z,17.11
2018-08-30T03:32:57.974Z,17.09
2018-08-30T03:35:27.147Z,17.10
2018-08-30T03:37:56.210Z,17.04
2018-08-30T03:40:25.094Z,16.93
2018-08-30T03:42:54.823Z,16.93
2018-08-30T03:45:23.912Z,16.89
2018-08-30T03:47:52.687Z,16.93
2018-08-30T03:50:21.929Z,16.98
2018-08-30T03:52:50.890Z,17.00
2018-08-30T03:55:20.147Z,16.94
2018-08-30T03:57:49.509Z,16.95
2018-08-30T04:00:18.487Z,17.11
2018-08-30T04:02:47.559Z,17.20
2018-08-30T04:12:04.367Z,17.61
2018-08-30T04:14:33.435Z,17.79
2018-08-30T04:17:02.571Z,18.18
2018-08-30T04:19:31.912Z,18.63
2018-08-30T04:22:00.983Z,19.05
2018-08-30T04:24:29.914Z,19.51
2018-08-30T04:26:59.248Z,19.96
2018-08-30T04:29:28.327Z,20.43
2018-08-30T04:31:57.423Z,20.78
2018-08-30T04:34:26.444Z,21.18
2018-08-30T04:36:58.170Z,21.66
2018-08-30T04:39:27.554Z,22.05
2018-08-30T04:41:56.778Z,22.46
2018-08-30T04:44:25.671Z,22.72
2018-08-30T04:46:54.918Z,23.10
2018-08-30T04:49:24.070Z,23.45
2018-08-30T04:51:53.272Z,23.69
2018-08-30T04:54:22.678Z,23.71
2018-08-30T04:56:51.530Z,23.72
2018-08-30T04:59:20.463Z,24.19
2018-08-30T05:01:49.931Z,24.90
2018-08-30T05:04:19.005Z,25.04
2018-08-30T05:06:48.526Z,25.53
2018-08-30T05:09:17.678Z,25.98
2018-08-30T05:11:46.869Z,26.46
2018-08-30T05:14:16.069Z,26.37
2018-08-30T05:16:45.715Z,26.53
2018-08-30T05:19:14.566Z,27.14
2018-08-30T05:23:19.609Z,26.40
2018-08-30T05:25:48.819Z,26.28
2018-08-30T05:28:17.767Z,26.68
2018-08-30T05:30:47.295Z,27.02
2018-08-30T05:33:16.206Z,27.65
2018-08-30T05:35:45.378Z,28.27
2018-08-30T05:38:14.341Z,28.40
2018-08-30T05:40:44.106Z,28.24
2018-08-30T05:43:13.308Z,28.13
2018-08-30T05:45:42.855Z,28.30
2018-08-30T05:48:11.802Z,28.55
2018-08-30T05:50:40.695Z,28.04
2018-08-30T05:53:10.238Z,28.04
2018-08-30T05:55:39.303Z,28.33
2018-08-30T05:58:08.466Z,28.45
2018-08-30T06:00:38.138Z,28.99
2018-08-30T06:03:07.218Z,29.65
2018-08-30T06:05:36.202Z,29.29
2018-08-30T06:08:05.667Z,30.22
2018-08-30T06:10:36.065Z,30.63
2018-08-30T06:13:05.356Z,31.11
2018-08-30T06:15:34.591Z,30.97
2018-08-30T06:18:03.643Z,30.20
2018-08-30T06:20:32.822Z,30.79
2018-08-30T06:23:01.862Z,31.03
2018-08-30T06:25:31.104Z,30.72
2018-08-30T06:28:00.534Z,30.76
2018-08-30T06:30:29.954Z,30.77
2018-08-30T06:32:58.979Z,31.40
2018-08-30T06:35:28.031Z,31.82
2018-08-30T06:37:57.094Z,32.16
2018-08-30T06:40:25.888Z,32.47
2018-08-30T06:42:54.692Z,32.52
2018-08-30T06:45:23.659Z,32.41
2018-08-30T06:47:52.754Z,32.56
2018-08-30T06:50:21.785Z,32.81
2018-08-30T06:52:51.164Z,33.32
2018-08-30T06:55:20.290Z,33.17
2018-08-30T06:57:49.279Z,33.02
2018-08-30T07:00:18.543Z,33.37
2018-08-30T07:02:47.467Z,33.04
2018-08-30T07:05:16.644Z,33.32
2018-08-30T07:07:46.236Z,33.56
2018-08-30T07:10:15.407Z,34.24
2018-08-30T07:12:44.370Z,34.05
2018-08-30T07:15:13.671Z,33.33
2018-08-30T07:17:42.782Z,32.20
2018-08-30T07:20:11.933Z,32.61
2018-08-30T07:22:41.298Z,32.49
2018-08-30T07:25:10.981Z,32.59
2018-08-30T07:27:39.764Z,32.95
2018-08-30T07:30:12.260Z,33.07
2018-08-30T07:32:41.760Z,33.73
2018-08-30T07:35:10.991Z,32.48
2018-08-30T07:37:40.023Z,33.25
2018-08-30T07:40:09.230Z,32.86
2018-08-30T07:42:38.384Z,32.06
2018-08-30T07:45:07.778Z,32.47
2018-08-30T07:47:36.919Z,32.77
2018-08-30T07:50:06.356Z,33.10
2018-08-30T07:52:35.687Z,32.41
2018-08-30T07:55:05.064Z,30.83
2018-08-30T07:57:35.007Z,32.00
2018-08-30T08:00:04.922Z,32.71
2018-08-30T08:02:33.907Z,33.26
2018-08-30T08:05:03.218Z,33.45
2018-08-30T08:07:32.671Z,32.86
2018-08-30T08:10:01.658Z,32.93
2018-08-30T08:12:31.251Z,32.57
2018-08-30T08:15:00.407Z,32.16
2018-08-30T08:17:29.380Z,30.58
2018-08-30T08:19:58.365Z,30.35
2018-08-30T08:22:27.991Z,29.59
2018-08-30T08:24:57.029Z,30.49
2018-08-30T08:27:25.967Z,31.69
2018-08-30T08:29:55.515Z,30.72
2018-08-30T08:32:24.482Z,29.37
2018-08-30T08:34:53.227Z,30.55
2018-08-30T08:37:22.494Z,31.32
2018-08-30T08:39:51.555Z,30.81
2018-08-30T08:42:20.522Z,31.30
2018-08-30T08:44:49.774Z,31.14
2018-08-30T08:47:18.974Z,31.65
2018-08-30T08:49:48.143Z,32.25
2018-08-30T08:52:17.695Z,33.21
2018-08-30T08:54:46.879Z,33.19
2018-08-30T08:57:16.177Z,33.52
2018-08-30T08:59:45.699Z,31.66
2018-08-30T09:02:14.781Z,32.35
2018-08-30T09:04:43.775Z,32.80
2018-08-30T09:07:13.776Z,33.15
2018-08-30T09:09:42.924Z,33.02
2018-08-30T09:12:12.054Z,32.48
2018-08-30T09:14:41.639Z,32.01
2018-08-30T09:17:10.874Z,32.35
2018-08-30T09:19:40.032Z,32.30
2018-08-30T09:22:09.319Z,32.11
2018-08-30T09:24:38.366Z,31.67
2018-08-30T09:27:07.459Z,31.13
2018-08-30T09:29:37.067Z,30.75
2018-08-30T09:32:06.508Z,30.57
2018-08-30T09:34:35.552Z,30.14
2018-08-30T09:37:05.070Z,30.00
2018-08-30T09:39:34.005Z,29.98
2018-08-30T09:42:03.031Z,30.07
2018-08-30T09:44:32.193Z,30.21
2018-08-30T09:47:01.267Z,30.43
2018-08-30T09:49:30.390Z,30.16
2018-08-30T09:51:59.750Z,30.16
2018-08-30T09:54:28.674Z,29.75
2018-08-30T09:56:57.998Z,29.58
2018-08-30T09:59:27.549Z,29.97
2018-08-30T10:02:01.853Z,30.06
2018-08-30T10:04:31.479Z,30.40
2018-08-30T10:07:00.721Z,30.62
2018-08-30T10:09:30.028Z,30.20
2018-08-30T10:11:59.655Z,30.32
2018-08-30T10:14:28.929Z,30.45
2018-08-30T10:16:58.102Z,29.29
2018-08-30T10:19:27.155Z,29.22
2018-08-30T10:21:56.271Z,28.96
2018-08-30T10:24:25.212Z,29.32
2018-08-30T10:26:54.407Z,29.81
2018-08-30T10:29:23.701Z,30.11
2018-08-30T10:31:52.798Z,30.20
2018-08-30T10:34:22.011Z,29.85
2018-08-30T10:36:51.102Z,29.93
2018-08-30T10:39:20.708Z,29.94
2018-08-30T10:41:50.639Z,30.19
2018-08-30T10:44:19.617Z,30.30
2018-08-30T10:46:48.613Z,30.28
2018-08-30T10:49:17.923Z,30.21
2018-08-30T10:51:47.138Z,30.33
2018-08-30T10:54:16.198Z,30.18
2018-08-30T10:56:45.774Z,29.88
2018-08-30T10:59:14.941Z,29.28
2018-08-30T11:01:44.022Z,29.18
2018-08-30T11:04:13.209Z,29.21
2018-08-30T11:06:42.492Z,29.17
2018-08-30T11:09:11.390Z,29.36
2018-08-30T11:11:40.364Z,29.36
2018-08-30T11:14:09.321Z,29.30
2018-08-30T11:16:38.623Z,29.38
2018-08-30T11:19:07.730Z,29.43
2018-08-30T11:21:36.990Z,29.92
2018-08-30T11:24:06.132Z,30.23
2018-08-30T11:26:35.874Z,30.27
2018-08-30T11:29:04.895Z,29.91
2018-08-30T11:31:33.887Z,29.79
2018-08-30T11:34:03.224Z,29.79
2018-08-30T11:36:32.195Z,29.73
2018-08-30T11:39:01.226Z,29.90
2018-08-30T11:41:31.057Z,29.70
2018-08-30T11:43:59.998Z,29.71
2018-08-30T11:46:29.187Z,29.54
2018-08-30T11:48:58.407Z,29.61
2018-08-30T11:51:27.695Z,29.83
2018-08-30T11:53:56.687Z,30.01
2018-08-30T11:56:26.035Z,30.05
2018-08-30T11:58:55.084Z,30.17
2018-08-30T12:01:23.993Z,30.24
2018-08-30T12:03:53.431Z,30.33
2018-08-30T12:06:22.700Z,30.28
2018-08-30T12:08:51.777Z,30.58
2018-08-30T12:11:21.230Z,30.77
2018-08-30T12:13:50.267Z,30.83
2018-08-30T12:16:19.289Z,30.89
2018-08-30T12:18:48.467Z,30.92
2018-08-30T12:21:17.643Z,30.78
2018-08-30T12:23:46.618Z,30.14
2018-08-30T12:26:16.112Z,29.96
2018-08-30T12:28:45.471Z,29.95
2018-08-30T12:31:14.448Z,30.03
2018-08-30T12:33:44.193Z,30.09
2018-08-30T12:36:13.201Z,30.19
2018-08-30T12:38:42.390Z,30.30
2018-08-30T12:41:12.043Z,30.32
2018-08-30T12:43:41.345Z,29.92
2018-08-30T12:46:10.324Z,30.08
2018-08-30T12:48:39.761Z,29.97
2018-08-30T12:51:09.034Z,30.07
2018-08-30T12:53:38.069Z,29.94
2018-08-30T12:56:07.737Z,30.12
2018-08-30T12:58:36.743Z,30.07
2018-08-30T13:01:06.136Z,30.02
2018-08-30T13:03:35.483Z,29.86
2018-08-30T13:06:04.800Z,30.02
2018-08-30T13:08:33.917Z,30.11
2018-08-30T13:11:02.994Z,30.28
2018-08-30T13:13:32.019Z,30.47
2018-08-30T13:16:00.994Z,30.59
2018-08-30T13:18:30.546Z,30.68
2018-08-30T13:21:00.059Z,30.87
2018-08-30T13:23:29.216Z,31.16
2018-08-30T13:25:58.260Z,31.22
2018-08-30T13:28:27.684Z,31.10
2018-08-30T13:30:56.935Z,30.34
2018-08-30T13:33:26.398Z,30.30
2018-08-30T13:35:55.513Z,30.21
2018-08-30T13:38:24.638Z,30.26
2018-08-30T13:40:54.263Z,30.42
2018-08-30T13:43:23.440Z,30.37
2018-08-30T13:45:52.378Z,30.51
2018-08-30T13:48:21.912Z,30.54
2018-08-30T13:50:51.312Z,30.26
2018-08-30T13:53:20.352Z,30.21
2018-08-30T13:55:49.839Z,30.10
2018-08-30T13:58:19.122Z,30.09
2018-08-30T14:00:48.345Z,30.13
2018-08-30T14:03:17.866Z,30.28
2018-08-30T14:05:47.128Z,30.29
2018-08-30T14:08:16.534Z,30.44
2018-08-30T14:10:45.711Z,30.55
2018-08-30T14:13:14.985Z,30.60
2018-08-30T14:15:43.735Z,30.44
2018-08-30T14:18:12.816Z,30.57
2018-08-30T14:20:41.606Z,30.63
2018-08-30T14:23:10.826Z,30.50
2018-08-30T14:25:40.066Z,30.40
2018-08-30T14:28:09.275Z,30.57
2018-08-30T14:30:38.110Z,30.72
2018-08-30T14:33:07.542Z,30.63
2018-08-30T14:35:36.598Z,30.72
2018-08-30T14:38:05.769Z,30.85
2018-08-30T14:40:35.641Z,30.94
2018-08-30T14:43:04.819Z,31.01
2018-08-30T14:45:33.871Z,30.81
2018-08-30T14:48:03.300Z,30.88
2018-08-30T14:50:32.148Z,30.77
2018-08-30T14:53:01.415Z,30.87
2018-08-30T14:55:30.519Z,30.84
2018-08-30T14:57:59.488Z,30.72
2018-08-30T15:00:28.675Z,30.70
2018-08-30T15:02:57.943Z,30.50
2018-08-30T15:05:27.718Z,30.56
2018-08-30T15:07:56.608Z,30.55
2018-08-30T15:10:26.019Z,30.62
2018-08-30T15:12:55.066Z,30.65
2018-08-30T15:15:24.095Z,30.24
2018-08-30T15:17:53.355Z,29.93
2018-08-30T15:20:22.294Z,29.69
2018-08-30T15:22:51.513Z,29.42
2018-08-30T15:25:21.036Z,29.51
2018-08-30T15:27:49.967Z,29.41
2018-08-30T15:30:19.059Z,29.21
2018-08-30T15:32:48.037Z,29.27
2018-08-30T15:35:17.262Z,29.35
2018-08-30T15:37:46.151Z,29.41
2018-08-30T15:40:15.474Z,29.44
2018-08-30T15:42:45.146Z,29.44
2018-08-30T15:45:14.746Z,29.42
2018-08-30T15:47:43.919Z,29.40
2018-08-30T15:50:13.025Z,29.28
2018-08-30T15:52:42.150Z,29.37
2018-08-30T15:55:11.388Z,29.38
2018-08-30T15:57:40.691Z,29.28
2018-08-30T16:00:09.975Z,29.29
2018-08-30T16:02:39.322Z,29.22
2018-08-30T16:05:08.388Z,28.93
2018-08-30T16:07:37.472Z,28.67
2018-08-30T16:10:07.067Z,28.49
2018-08-30T16:12:36.092Z,28.21
2018-08-30T16:15:05.241Z,28.16
2018-08-30T16:17:34.593Z,27.89
2018-08-30T16:20:03.783Z,27.81
2018-08-30T16:22:43.866Z,27.80
2018-08-30T16:25:13.039Z,27.57
2018-08-30T16:27:42.235Z,27.42
2018-08-30T16:30:11.570Z,27.37
2018-08-30T16:32:40.834Z,27.20
2018-08-30T16:35:09.623Z,27.13
2018-08-30T16:37:39.183Z,27.02
2018-08-30T16:40:08.347Z,26.97
2018-08-30T16:42:37.498Z,26.91
2018-08-30T16:45:06.799Z,26.76
2018-08-30T16:47:35.808Z,26.68
2018-08-30T16:50:04.940Z,26.64
2018-08-30T16:52:34.859Z,26.52
2018-08-30T16:55:03.836Z,26.51
2018-08-30T16:57:32.779Z,26.41
2018-08-30T17:00:02.115Z,26.33
2018-08-30T17:02:31.445Z,26.33
2018-08-30T17:05:00.430Z,26.19
2018-08-30T17:07:29.619Z,26.22
2018-08-30T17:09:58.814Z,26.23
2018-08-30T17:12:27.879Z,26.14
2018-08-30T17:14:57.247Z,26.11
2018-08-30T17:17:26.997Z,26.09
2018-08-30T17:19:55.807Z,26.11
2018-08-30T17:22:25.450Z,25.97
2018-08-30T17:24:54.672Z,25.93
2018-08-30T17:27:23.631Z,25.85
2018-08-30T17:29:52.755Z,25.77
2018-08-30T17:32:21.912Z,25.74
2018-08-30T17:34:50.932Z,25.69
2018-08-30T17:37:20.347Z,25.66
2018-08-30T17:39:49.373Z,25.62
2018-08-30T17:42:18.511Z,25.63
2018-08-30T17:44:47.834Z,25.53
2018-08-30T17:47:16.881Z,25.49
2018-08-30T17:49:46.248Z,25.52
2018-08-30T17:52:15.543Z,25.51
2018-08-30T17:54:44.689Z,25.50
2018-08-30T17:57:13.834Z,25.45
2018-08-30T17:59:42.965Z,25.41
2018-08-30T18:02:12.426Z,25.31
2018-08-30T18:04:41.212Z,25.26
2018-08-30T18:07:10.203Z,25.24
2018-08-30T18:09:39.783Z,25.18
2018-08-30T18:12:08.892Z,25.13
2018-08-30T18:14:38.129Z,25.06
2018-08-30T18:17:08.081Z,25.00
2018-08-30T18:19:37.230Z,24.99
2018-08-30T18:22:07.022Z,24.94
2018-08-30T18:24:35.915Z,24.95
2018-08-30T18:27:04.957Z,24.94
2018-08-30T18:29:33.925Z,24.94
2018-08-30T18:32:03.091Z,24.92
2018-08-30T18:34:32.184Z,24.83
2018-08-30T18:37:01.505Z,24.79
2018-08-30T18:39:30.535Z,24.80
2018-08-30T18:41:59.920Z,24.74
2018-08-30T18:44:29.130Z,24.64
2018-08-30T18:46:58.104Z,24.62
2018-08-30T18:49:27.211Z,24.56
2018-08-30T18:51:57.606Z,24.56
2018-08-30T18:54:27.142Z,24.50
2018-08-30T18:56:56.239Z,24.56
2018-08-30T18:59:25.668Z,24.47
2018-08-30T19:01:54.868Z,24.43
2018-08-30T19:04:24.312Z,24.35
2018-08-30T19:06:53.648Z,24.39
2018-08-30T19:09:22.422Z,24.36
2018-08-30T19:11:51.534Z,24.31
2018-08-30T19:14:20.958Z,24.26
2018-08-30T19:16:54.906Z,24.23
2018-08-30T19:19:25.956Z,24.19
2018-08-30T19:21:55.006Z,24.16
2018-08-30T19:24:29.276Z,24.11
2018-08-30T19:26:58.271Z,24.01
2018-08-30T19:29:27.183Z,23.85
2018-08-30T19:31:56.524Z,23.77
2018-08-30T19:34:25.708Z,23.69
2018-08-30T19:36:54.847Z,23.59
2018-08-30T19:39:24.111Z,23.51
2018-08-30T19:41:53.043Z,23.49
2018-08-30T19:44:21.979Z,23.44
2018-08-30T19:46:51.472Z,23.40
2018-08-30T19:49:20.307Z,23.44
2018-08-30T19:51:49.370Z,23.39
2018-08-30T19:54:18.462Z,23.37
2018-08-30T19:56:47.371Z,23.33
2018-08-30T19:59:16.627Z,23.29
2018-08-30T20:01:45.913Z,23.21
2018-08-30T20:04:15.027Z,23.19
2018-08-30T20:06:44.036Z,23.19
2018-08-30T20:09:13.460Z,23.14
2018-08-30T20:11:42.455Z,23.08
2018-08-30T20:14:11.451Z,23.04
2018-08-30T20:16:40.662Z,23.06
2018-08-30T20:19:09.623Z,22.99
2018-08-30T20:21:38.527Z,23.01
2018-08-30T20:24:08.070Z,23.03
2018-08-30T20:26:37.263Z,22.96
2018-08-30T20:29:06.555Z,22.97
2018-08-30T20:31:35.552Z,22.95
2018-08-30T20:34:04.694Z,22.93
2018-08-30T20:36:33.799Z,22.88
2018-08-30T20:39:03.168Z,22.79
2018-08-30T20:41:32.346Z,22.76
2018-08-30T20:44:01.318Z,22.75
2018-08-30T20:46:30.686Z,22.76
2018-08-30T20:48:59.755Z,22.69
2018-08-30T20:51:28.898Z,22.66
2018-08-30T20:53:58.234Z,22.63
2018-08-30T20:56:27.421Z,22.60
2018-08-30T20:58:56.629Z,22.56
2018-08-30T21:01:25.842Z,22.39
2018-08-30T21:03:54.927Z,22.35
2018-08-30T21:06:24.111Z,22.30
2018-08-30T21:08:53.638Z,22.19
2018-08-30T21:11:23.058Z,22.07
2018-08-30T21:13:52.018Z,22.01
2018-08-30T21:16:21.292Z,21.93
2018-08-30T21:18:50.431Z,21.84
2018-08-30T21:21:19.308Z,21.68
2018-08-30T21:23:48.345Z,21.64
2018-08-30T21:26:17.229Z,21.61
2018-08-30T21:28:46.505Z,21.63
2018-08-30T21:31:15.742Z,21.52
2018-08-30T21:33:44.803Z,21.46
2018-08-30T21:36:13.994Z,21.45
2018-08-30T21:38:44.922Z,21.42
2018-08-30T21:41:17.526Z,21.34
2018-08-30T21:43:46.806Z,21.29
2018-08-30T21:46:15.883Z,21.20
2018-08-30T21:48:44.925Z,21.14
2018-08-30T21:51:14.951Z,21.15
2018-08-30T21:53:43.910Z,21.14
2018-08-30T21:56:12.819Z,21.10
2018-08-30T21:58:42.252Z,21.02
2018-08-30T22:01:11.306Z,21.03
2018-08-30T22:03:42.720Z,21.00
2018-08-30T22:06:11.882Z,20.97
2018-08-30T22:08:41.424Z,20.93
2018-08-30T22:11:10.494Z,20.92
2018-08-30T22:13:39.981Z,20.85
2018-08-30T22:16:09.073Z,20.89
2018-08-30T22:18:38.558Z,20.93
2018-08-30T22:21:08.318Z,20.91
2018-08-30T22:23:37.217Z,20.87
2018-08-30T22:26:06.251Z,20.79
2018-08-30T22:28:35.202Z,20.74
2018-08-30T22:31:04.309Z,20.63
2018-08-30T22:33:34.714Z,20.56
2018-08-30T22:36:03.736Z,20.50
2018-08-30T22:38:32.694Z,20.41
2018-08-30T22:41:01.670Z,20.37
2018-08-30T22:43:30.592Z,20.30
2018-08-30T22:45:59.578Z,20.21
2018-08-30T22:48:28.614Z,20.22
2018-08-30T22:50:58.120Z,20.23
2018-08-30T22:53:26.870Z,20.16
2018-08-30T22:55:55.839Z,20.19
2018-08-30T22:58:24.902Z,20.06
2018-08-30T23:00:54.242Z,20.08
2018-08-30T23:03:23.140Z,20.12
2018-08-30T23:05:52.514Z,19.99
2018-08-30T23:08:21.746Z,19.92
2018-08-30T23:10:50.935Z,19.84
2018-08-30T23:13:20.274Z,19.78
2018-08-30T23:15:49.450Z,19.76
2018-08-30T23:18:18.452Z,19.73
2018-08-30T23:20:47.520Z,19.63
2018-08-30T23:23:16.502Z,19.61
2018-08-30T23:25:45.527Z,19.52
2018-08-30T23:28:15.134Z,19.51
2018-08-30T23:30:45.358Z,19.50
2018-08-30T23:33:14.166Z,19.43
2018-08-30T23:35:43.582Z,19.47
2018-08-30T23:38:13.119Z,19.39
2018-08-30T23:40:41.957Z,19.36
2018-08-30T23:43:11.172Z,19.31
2018-08-30T23:45:40.428Z,19.27
2018-08-30T23:48:09.622Z,19.20
2018-08-30T23:50:38.786Z,19.22
2018-08-30T23:53:07.641Z,19.23
2018-08-30T23:55:36.634Z,19.18
2018-08-30T23:58:16.615Z,19.13
